sensor_id;sensor_type;location;lat;lon;timestamp;P1;durP1;ratioP1;P2;durP2;ratioP2
76939;SDS011;65885;55.848;35.916;2023-03-14T00:01:11;3.33;;;1.55;;
76939;SDS011;65885;55.848;35.916;2023-03-14T00:03:40;2.95;;;1.42;;
76939;SDS011;65885;55.848;35.916;2023-03-14T00:06:09;3.65;;;1.35;;
76939;SDS011;65885;55.848;35.916;2023-03-14T00:08:37;5.50;;;1.50;;
76939;SDS011;65885;55.848;35.916;2023-03-14T00:11:05;1.75;;;1.33;;
76939;SDS011;65885;55.848;35.916;2023-03-14T00:13:35;2.78;;;1.38;;
76939;SDS011;65885;55.848;35.916;2023-03-14T00:16:04;2.63;;;1.30;;
76939;SDS011;65885;55.848;35.916;2023-03-14T00:18:33;2.70;;;1.33;;
76939;SDS011;65885;55.848;35.916;2023-03-14T00:21:01;1.95;;;1.35;;
76939;SDS011;65885;55.848;35.916;2023-03-14T00:23:30;3.72;;;1.35;;
76939;SDS011;65885;55.848;35.916;2023-03-14T00:25:59;4.47;;;2.03;;
76939;SDS011;65885;55.848;35.916;2023-03-14T00:28:29;2.80;;;1.73;;
76939;SDS011;65885;55.848;35.916;2023-03-14T00:30:56;2.38;;;1.60;;
76939;SDS011;65885;55.848;35.916;2023-03-14T00:33:24;2.38;;;1.70;;
76939;SDS011;65885;55.848;35.916;2023-03-14T00:35:52;3.08;;;1.50;;
76939;SDS011;65885;55.848;35.916;2023-03-14T00:38:21;3.65;;;1.90;;
76939;SDS011;65885;55.848;35.916;2023-03-14T00:40:49;6.05;;;1.90;;
76939;SDS011;65885;55.848;35.916;2023-03-14T00:43:17;3.20;;;1.83;;
76939;SDS011;65885;55.848;35.916;2023-03-14T00:45:48;2.10;;;1.58;;
76939;SDS011;65885;55.848;35.916;2023-03-14T00:48:15;2.45;;;1.60;;
76939;SDS011;65885;55.848;35.916;2023-03-14T00:50:43;3.58;;;1.50;;
76939;SDS011;65885;55.848;35.916;2023-03-14T00:53:10;3.03;;;1.55;;
76939;SDS011;65885;55.848;35.916;2023-03-14T00:55:38;2.13;;;1.67;;
76939;SDS011;65885;55.848;35.916;2023-03-14T00:58:07;1.88;;;1.13;;
76939;SDS011;65885;55.848;35.916;2023-03-14T01:00:35;2.63;;;1.85;;
76939;SDS011;65885;55.848;35.916;2023-03-14T01:03:04;2.83;;;1.52;;
76939;SDS011;65885;55.848;35.916;2023-03-14T01:05:33;3.40;;;1.60;;
76939;SDS011;65885;55.848;35.916;2023-03-14T01:08:00;3.15;;;1.85;;
76939;SDS011;65885;55.848;35.916;2023-03-14T01:10:28;2.83;;;1.67;;
76939;SDS011;65885;55.848;35.916;2023-03-14T01:12:57;2.60;;;1.65;;
76939;SDS011;65885;55.848;35.916;2023-03-14T01:15:24;1.80;;;0.95;;
76939;SDS011;65885;55.848;35.916;2023-03-14T01:17:52;3.42;;;1.40;;
76939;SDS011;65885;55.848;35.916;2023-03-14T01:20:21;2.53;;;1.42;;
76939;SDS011;65885;55.848;35.916;2023-03-14T01:22:48;4.10;;;1.70;;
76939;SDS011;65885;55.848;35.916;2023-03-14T01:25:16;3.20;;;2.03;;
76939;SDS011;65885;55.848;35.916;2023-03-14T01:27:44;2.40;;;1.60;;
76939;SDS011;65885;55.848;35.916;2023-03-14T01:30:12;3.95;;;1.67;;
76939;SDS011;65885;55.848;35.916;2023-03-14T01:32:40;3.50;;;1.60;;
76939;SDS011;65885;55.848;35.916;2023-03-14T01:35:07;2.70;;;1.70;;
76939;SDS011;65885;55.848;35.916;2023-03-14T01:37:36;2.90;;;1.70;;
76939;SDS011;65885;55.848;35.916;2023-03-14T01:40:04;2.55;;;1.88;;
76939;SDS011;65885;55.848;35.916;2023-03-14T01:42:32;3.45;;;1.88;;
76939;SDS011;65885;55.848;35.916;2023-03-14T01:45:00;4.18;;;2.30;;
76939;SDS011;65885;55.848;35.916;2023-03-14T01:47:29;4.80;;;2.10;;
76939;SDS011;65885;55.848;35.916;2023-03-14T01:49:57;4.13;;;1.70;;
76939;SDS011;65885;55.848;35.916;2023-03-14T01:52:28;3.33;;;2.25;;
76939;SDS011;65885;55.848;35.916;2023-03-14T01:55:02;3.70;;;2.22;;
76939;SDS011;65885;55.848;35.916;2023-03-14T01:57:33;2.95;;;2.40;;
76939;SDS011;65885;55.848;35.916;2023-03-14T02:00:04;3.10;;;1.65;;
76939;SDS011;65885;55.848;35.916;2023-03-14T02:02:37;4.20;;;2.33;;
76939;SDS011;65885;55.848;35.916;2023-03-14T02:05:06;4.70;;;1.83;;
76939;SDS011;65885;55.848;35.916;2023-03-14T02:07:35;2.92;;;2.05;;
76939;SDS011;65885;55.848;35.916;2023-03-14T02:10:08;3.03;;;1.98;;
76939;SDS011;65885;55.848;35.916;2023-03-14T02:12:38;3.55;;;1.92;;
76939;SDS011;65885;55.848;35.916;2023-03-14T02:15:06;3.45;;;1.95;;
76939;SDS011;65885;55.848;35.916;2023-03-14T02:17:35;2.72;;;1.90;;
76939;SDS011;65885;55.848;35.916;2023-03-14T02:22:56;4.60;;;1.85;;
76939;SDS011;65885;55.848;35.916;2023-03-14T02:25:27;3.38;;;2.00;;
76939;SDS011;65885;55.848;35.916;2023-03-14T02:28:04;2.90;;;2.10;;
76939;SDS011;65885;55.848;35.916;2023-03-14T02:30:31;3.40;;;2.33;;
76939;SDS011;65885;55.848;35.916;2023-03-14T02:33:01;3.55;;;1.83;;
76939;SDS011;65885;55.848;35.916;2023-03-14T02:35:32;3.13;;;2.33;;
76939;SDS011;65885;55.848;35.916;2023-03-14T02:38:03;3.28;;;2.28;;
76939;SDS011;65885;55.848;35.916;2023-03-14T02:40:37;3.15;;;2.28;;
76939;SDS011;65885;55.848;35.916;2023-03-14T02:43:06;2.83;;;2.05;;
76939;SDS011;65885;55.848;35.916;2023-03-14T02:45:40;3.83;;;2.60;;
76939;SDS011;65885;55.848;35.916;2023-03-14T02:48:13;3.80;;;2.63;;
76939;SDS011;65885;55.848;35.916;2023-03-14T02:50:43;4.60;;;2.35;;
76939;SDS011;65885;55.848;35.916;2023-03-14T02:53:13;4.28;;;2.03;;
76939;SDS011;65885;55.848;35.916;2023-03-14T02:55:44;6.32;;;2.58;;
76939;SDS011;65885;55.848;35.916;2023-03-14T02:58:14;4.47;;;2.65;;
76939;SDS011;65885;55.848;35.916;2023-03-14T03:00:42;3.45;;;2.58;;
76939;SDS011;65885;55.848;35.916;2023-03-14T03:03:10;3.42;;;2.50;;
76939;SDS011;65885;55.848;35.916;2023-03-14T03:05:38;4.13;;;2.58;;
76939;SDS011;65885;55.848;35.916;2023-03-14T03:08:05;3.88;;;2.85;;
76939;SDS011;65885;55.848;35.916;2023-03-14T03:10:32;3.78;;;2.45;;
76939;SDS011;65885;55.848;35.916;2023-03-14T03:13:00;5.00;;;2.95;;
76939;SDS011;65885;55.848;35.916;2023-03-14T03:15:29;4.07;;;2.65;;
76939;SDS011;65885;55.848;35.916;2023-03-14T03:17:56;2.47;;;2.05;;
76939;SDS011;65885;55.848;35.916;2023-03-14T03:20:23;2.67;;;2.45;;
76939;SDS011;65885;55.848;35.916;2023-03-14T03:22:51;5.07;;;2.30;;
76939;SDS011;65885;55.848;35.916;2023-03-14T03:25:18;4.78;;;2.90;;
76939;SDS011;65885;55.848;35.916;2023-03-14T03:27:45;4.28;;;2.65;;
76939;SDS011;65885;55.848;35.916;2023-03-14T03:30:13;4.00;;;2.17;;
76939;SDS011;65885;55.848;35.916;2023-03-14T03:32:43;3.75;;;2.67;;
76939;SDS011;65885;55.848;35.916;2023-03-14T03:35:11;3.55;;;2.30;;
76939;SDS011;65885;55.848;35.916;2023-03-14T03:37:38;2.95;;;2.30;;
76939;SDS011;65885;55.848;35.916;2023-03-14T03:40:07;3.05;;;2.22;;
76939;SDS011;65885;55.848;35.916;2023-03-14T03:42:35;5.45;;;3.05;;
76939;SDS011;65885;55.848;35.916;2023-03-14T03:45:03;5.00;;;2.80;;
76939;SDS011;65885;55.848;35.916;2023-03-14T03:47:31;4.78;;;3.38;;
76939;SDS011;65885;55.848;35.916;2023-03-14T03:50:00;4.72;;;3.10;;
76939;SDS011;65885;55.848;35.916;2023-03-14T03:52:28;3.22;;;2.35;;
76939;SDS011;65885;55.848;35.916;2023-03-14T03:54:55;4.10;;;3.03;;
76939;SDS011;65885;55.848;35.916;2023-03-14T03:57:23;4.38;;;3.13;;
76939;SDS011;65885;55.848;35.916;2023-03-14T03:59:50;4.43;;;2.97;;
76939;SDS011;65885;55.848;35.916;2023-03-14T04:02:17;4.47;;;2.78;;
76939;SDS011;65885;55.848;35.916;2023-03-14T04:04:45;5.28;;;3.03;;
76939;SDS011;65885;55.848;35.916;2023-03-14T04:07:14;4.47;;;3.03;;
76939;SDS011;65885;55.848;35.916;2023-03-14T04:09:41;5.13;;;3.25;;
76939;SDS011;65885;55.848;35.916;2023-03-14T04:12:08;4.22;;;2.50;;
76939;SDS011;65885;55.848;35.916;2023-03-14T04:14:36;3.05;;;2.75;;
76939;SDS011;65885;55.848;35.916;2023-03-14T04:17:03;5.20;;;2.67;;
76939;SDS011;65885;55.848;35.916;2023-03-14T04:19:31;4.72;;;3.30;;
76939;SDS011;65885;55.848;35.916;2023-03-14T04:21:58;4.22;;;2.95;;
76939;SDS011;65885;55.848;35.916;2023-03-14T04:24:27;4.68;;;3.15;;
76939;SDS011;65885;55.848;35.916;2023-03-14T04:26:54;4.35;;;3.15;;
76939;SDS011;65885;55.848;35.916;2023-03-14T04:29:21;5.18;;;3.40;;
76939;SDS011;65885;55.848;35.916;2023-03-14T04:31:48;4.95;;;3.00;;
76939;SDS011;65885;55.848;35.916;2023-03-14T04:34:18;7.43;;;3.10;;
76939;SDS011;65885;55.848;35.916;2023-03-14T04:36:46;5.68;;;3.08;;
76939;SDS011;65885;55.848;35.916;2023-03-14T04:39:13;4.88;;;3.40;;
76939;SDS011;65885;55.848;35.916;2023-03-14T04:41:43;5.20;;;2.90;;
76939;SDS011;65885;55.848;35.916;2023-03-14T04:44:11;3.83;;;3.20;;
76939;SDS011;65885;55.848;35.916;2023-03-14T04:46:39;3.92;;;2.63;;
76939;SDS011;65885;55.848;35.916;2023-03-14T04:49:06;5.53;;;3.78;;
76939;SDS011;65885;55.848;35.916;2023-03-14T04:51:36;6.28;;;3.40;;
76939;SDS011;65885;55.848;35.916;2023-03-14T04:54:03;5.75;;;3.47;;
76939;SDS011;65885;55.848;35.916;2023-03-14T04:56:31;4.85;;;3.20;;
76939;SDS011;65885;55.848;35.916;2023-03-14T04:59:00;4.82;;;3.78;;
76939;SDS011;65885;55.848;35.916;2023-03-14T05:01:27;5.72;;;3.58;;
76939;SDS011;65885;55.848;35.916;2023-03-14T05:03:54;4.57;;;3.13;;
76939;SDS011;65885;55.848;35.916;2023-03-14T05:06:22;7.20;;;3.95;;
76939;SDS011;65885;55.848;35.916;2023-03-14T05:08:50;6.28;;;3.97;;
76939;SDS011;65885;55.848;35.916;2023-03-14T05:11:18;5.95;;;3.45;;
76939;SDS011;65885;55.848;35.916;2023-03-14T05:13:45;5.05;;;3.90;;
76939;SDS011;65885;55.848;35.916;2023-03-14T05:16:14;7.90;;;3.75;;
76939;SDS011;65885;55.848;35.916;2023-03-14T05:18:41;6.13;;;3.60;;
76939;SDS011;65885;55.848;35.916;2023-03-14T05:21:08;5.88;;;3.72;;
76939;SDS011;65885;55.848;35.916;2023-03-14T05:23:35;6.95;;;3.25;;
76939;SDS011;65885;55.848;35.916;2023-03-14T05:26:03;6.35;;;3.42;;
76939;SDS011;65885;55.848;35.916;2023-03-14T05:28:30;4.32;;;3.22;;
76939;SDS011;65885;55.848;35.916;2023-03-14T05:30:58;3.10;;;2.42;;
76939;SDS011;65885;55.848;35.916;2023-03-14T05:33:26;4.22;;;3.13;;
76939;SDS011;65885;55.848;35.916;2023-03-14T05:35:54;4.68;;;3.47;;
76939;SDS011;65885;55.848;35.916;2023-03-14T05:38:21;7.78;;;3.95;;
76939;SDS011;65885;55.848;35.916;2023-03-14T05:40:48;5.97;;;3.45;;
76939;SDS011;65885;55.848;35.916;2023-03-14T05:43:16;5.55;;;3.25;;
76939;SDS011;65885;55.848;35.916;2023-03-14T05:45:43;6.00;;;3.50;;
76939;SDS011;65885;55.848;35.916;2023-03-14T05:48:11;6.25;;;3.33;;
76939;SDS011;65885;55.848;35.916;2023-03-14T05:50:40;4.25;;;3.00;;
76939;SDS011;65885;55.848;35.916;2023-03-14T05:53:07;5.82;;;3.40;;
76939;SDS011;65885;55.848;35.916;2023-03-14T05:55:34;5.65;;;3.25;;
76939;SDS011;65885;55.848;35.916;2023-03-14T05:58:01;7.70;;;4.00;;
76939;SDS011;65885;55.848;35.916;2023-03-14T06:00:29;4.95;;;2.47;;
76939;SDS011;65885;55.848;35.916;2023-03-14T06:02:56;4.35;;;3.55;;
76939;SDS011;65885;55.848;35.916;2023-03-14T06:05:24;4.22;;;3.15;;
76939;SDS011;65885;55.848;35.916;2023-03-14T06:07:53;4.25;;;3.47;;
76939;SDS011;65885;55.848;35.916;2023-03-14T06:10:20;5.63;;;3.20;;
76939;SDS011;65885;55.848;35.916;2023-03-14T06:12:48;5.45;;;2.78;;
76939;SDS011;65885;55.848;35.916;2023-03-14T06:15:15;5.38;;;3.40;;
76939;SDS011;65885;55.848;35.916;2023-03-14T06:17:42;8.27;;;3.45;;
76939;SDS011;65885;55.848;35.916;2023-03-14T06:20:10;3.90;;;3.20;;
76939;SDS011;65885;55.848;35.916;2023-03-14T06:22:38;5.63;;;3.38;;
76939;SDS011;65885;55.848;35.916;2023-03-14T06:25:09;5.95;;;2.65;;
76939;SDS011;65885;55.848;35.916;2023-03-14T06:27:36;5.50;;;3.35;;
76939;SDS011;65885;55.848;35.916;2023-03-14T06:30:04;5.70;;;3.63;;
76939;SDS011;65885;55.848;35.916;2023-03-14T06:32:32;4.80;;;3.25;;
76939;SDS011;65885;55.848;35.916;2023-03-14T06:35:00;5.22;;;3.00;;
76939;SDS011;65885;55.848;35.916;2023-03-14T06:37:29;5.45;;;3.58;;
76939;SDS011;65885;55.848;35.916;2023-03-14T06:39:57;6.20;;;3.13;;
76939;SDS011;65885;55.848;35.916;2023-03-14T06:42:26;6.03;;;3.22;;
76939;SDS011;65885;55.848;35.916;2023-03-14T06:44:54;4.85;;;3.80;;
76939;SDS011;65885;55.848;35.916;2023-03-14T06:47:21;4.00;;;3.25;;
76939;SDS011;65885;55.848;35.916;2023-03-14T06:49:48;4.00;;;2.85;;
76939;SDS011;65885;55.848;35.916;2023-03-14T06:52:15;8.48;;;3.47;;
76939;SDS011;65885;55.848;35.916;2023-03-14T06:54:43;6.32;;;3.20;;
76939;SDS011;65885;55.848;35.916;2023-03-14T06:57:10;5.63;;;2.80;;
76939;SDS011;65885;55.848;35.916;2023-03-14T06:59:39;6.32;;;3.05;;
76939;SDS011;65885;55.848;35.916;2023-03-14T07:02:07;3.30;;;2.25;;
76939;SDS011;65885;55.848;35.916;2023-03-14T07:04:37;5.60;;;3.10;;
76939;SDS011;65885;55.848;35.916;2023-03-14T07:07:05;3.95;;;3.10;;
76939;SDS011;65885;55.848;35.916;2023-03-14T07:09:33;4.22;;;2.47;;
76939;SDS011;65885;55.848;35.916;2023-03-14T07:12:01;6.03;;;3.30;;
76939;SDS011;65885;55.848;35.916;2023-03-14T07:14:29;4.80;;;3.00;;
76939;SDS011;65885;55.848;35.916;2023-03-14T07:16:58;4.68;;;3.05;;
76939;SDS011;65885;55.848;35.916;2023-03-14T07:19:26;4.97;;;3.25;;
76939;SDS011;65885;55.848;35.916;2023-03-14T07:21:55;6.07;;;3.08;;
76939;SDS011;65885;55.848;35.916;2023-03-14T07:24:23;4.53;;;2.47;;
76939;SDS011;65885;55.848;35.916;2023-03-14T07:26:51;4.85;;;3.30;;
76939;SDS011;65885;55.848;35.916;2023-03-14T07:29:19;5.28;;;3.30;;
76939;SDS011;65885;55.848;35.916;2023-03-14T07:31:46;5.50;;;3.15;;
76939;SDS011;65885;55.848;35.916;2023-03-14T07:34:15;6.25;;;3.58;;
76939;SDS011;65885;55.848;35.916;2023-03-14T07:36:43;5.90;;;3.45;;
76939;SDS011;65885;55.848;35.916;2023-03-14T07:39:11;4.43;;;3.05;;
76939;SDS011;65885;55.848;35.916;2023-03-14T07:41:38;5.38;;;3.08;;
76939;SDS011;65885;55.848;35.916;2023-03-14T07:44:06;5.05;;;2.60;;
76939;SDS011;65885;55.848;35.916;2023-03-14T07:46:33;5.40;;;3.28;;
76939;SDS011;65885;55.848;35.916;2023-03-14T07:49:00;5.40;;;3.30;;
76939;SDS011;65885;55.848;35.916;2023-03-14T07:51:29;3.38;;;2.30;;
76939;SDS011;65885;55.848;35.916;2023-03-14T07:53:57;4.05;;;2.65;;
76939;SDS011;65885;55.848;35.916;2023-03-14T07:56:24;6.90;;;2.90;;
76939;SDS011;65885;55.848;35.916;2023-03-14T07:58:51;6.25;;;2.85;;
76939;SDS011;65885;55.848;35.916;2023-03-14T08:01:19;4.82;;;2.65;;
76939;SDS011;65885;55.848;35.916;2023-03-14T08:03:46;4.18;;;2.50;;
76939;SDS011;65885;55.848;35.916;2023-03-14T08:06:14;6.88;;;2.63;;
76939;SDS011;65885;55.848;35.916;2023-03-14T08:08:43;4.80;;;2.65;;
76939;SDS011;65885;55.848;35.916;2023-03-14T08:11:10;5.40;;;2.67;;
76939;SDS011;65885;55.848;35.916;2023-03-14T08:13:38;5.60;;;2.47;;
76939;SDS011;65885;55.848;35.916;2023-03-14T08:16:05;3.75;;;2.15;;
76939;SDS011;65885;55.848;35.916;2023-03-14T08:18:33;4.63;;;2.45;;
76939;SDS011;65885;55.848;35.916;2023-03-14T08:21:02;4.85;;;3.20;;
76939;SDS011;65885;55.848;35.916;2023-03-14T08:23:29;5.60;;;3.28;;
76939;SDS011;65885;55.848;35.916;2023-03-14T08:25:58;5.30;;;2.17;;
76939;SDS011;65885;55.848;35.916;2023-03-14T08:28:25;3.95;;;2.40;;
76939;SDS011;65885;55.848;35.916;2023-03-14T08:30:56;4.97;;;2.60;;
76939;SDS011;65885;55.848;35.916;2023-03-14T08:33:24;4.90;;;3.15;;
76939;SDS011;65885;55.848;35.916;2023-03-14T08:35:52;4.70;;;2.47;;
76939;SDS011;65885;55.848;35.916;2023-03-14T08:38:19;4.53;;;2.75;;
76939;SDS011;65885;55.848;35.916;2023-03-14T08:40:47;5.72;;;3.08;;
76939;SDS011;65885;55.848;35.916;2023-03-14T08:43:19;6.47;;;2.60;;
76939;SDS011;65885;55.848;35.916;2023-03-14T08:45:46;3.90;;;2.70;;
76939;SDS011;65885;55.848;35.916;2023-03-14T08:48:14;4.68;;;2.60;;
76939;SDS011;65885;55.848;35.916;2023-03-14T08:50:41;4.72;;;2.05;;
76939;SDS011;65885;55.848;35.916;2023-03-14T08:53:09;4.75;;;2.70;;
76939;SDS011;65885;55.848;35.916;2023-03-14T08:55:36;4.93;;;2.70;;
76939;SDS011;65885;55.848;35.916;2023-03-14T08:58:04;3.75;;;2.33;;
76939;SDS011;65885;55.848;35.916;2023-03-14T09:00:33;4.53;;;2.63;;
76939;SDS011;65885;55.848;35.916;2023-03-14T09:03:00;4.50;;;2.60;;
76939;SDS011;65885;55.848;35.916;2023-03-14T09:05:28;4.57;;;2.63;;
76939;SDS011;65885;55.848;35.916;2023-03-14T09:07:57;4.03;;;2.60;;
76939;SDS011;65885;55.848;35.916;2023-03-14T09:10:26;4.18;;;2.42;;
76939;SDS011;65885;55.848;35.916;2023-03-14T09:12:54;3.80;;;2.60;;
76939;SDS011;65885;55.848;35.916;2023-03-14T09:15:23;4.43;;;2.67;;
76939;SDS011;65885;55.848;35.916;2023-03-14T09:17:52;3.50;;;2.35;;
76939;SDS011;65885;55.848;35.916;2023-03-14T09:20:19;3.97;;;2.08;;
76939;SDS011;65885;55.848;35.916;2023-03-14T09:22:47;6.47;;;2.80;;
76939;SDS011;65885;55.848;35.916;2023-03-14T09:25:14;5.32;;;2.58;;
76939;SDS011;65885;55.848;35.916;2023-03-14T09:27:42;3.83;;;1.92;;
76939;SDS011;65885;55.848;35.916;2023-03-14T09:30:09;4.55;;;2.90;;
76939;SDS011;65885;55.848;35.916;2023-03-14T09:32:37;3.58;;;2.30;;
76939;SDS011;65885;55.848;35.916;2023-03-14T09:35:07;4.90;;;2.38;;
76939;SDS011;65885;55.848;35.916;2023-03-14T09:37:36;3.90;;;2.75;;
76939;SDS011;65885;55.848;35.916;2023-03-14T09:40:03;4.85;;;2.60;;
76939;SDS011;65885;55.848;35.916;2023-03-14T09:42:35;4.38;;;2.42;;
76939;SDS011;65885;55.848;35.916;2023-03-14T09:45:06;3.78;;;2.50;;
76939;SDS011;65885;55.848;35.916;2023-03-14T09:47:39;5.07;;;3.53;;
76939;SDS011;65885;55.848;35.916;2023-03-14T09:50:11;3.13;;;2.55;;
76939;SDS011;65885;55.848;35.916;2023-03-14T09:52:41;4.90;;;2.50;;
76939;SDS011;65885;55.848;35.916;2023-03-14T09:55:11;5.03;;;2.63;;
76939;SDS011;65885;55.848;35.916;2023-03-14T09:57:41;6.18;;;2.97;;
76939;SDS011;65885;55.848;35.916;2023-03-14T10:00:14;3.50;;;2.33;;
76939;SDS011;65885;55.848;35.916;2023-03-14T10:02:46;4.82;;;2.83;;
76939;SDS011;65885;55.848;35.916;2023-03-14T10:05:20;4.78;;;3.20;;
76939;SDS011;65885;55.848;35.916;2023-03-14T10:07:49;4.97;;;2.90;;
76939;SDS011;65885;55.848;35.916;2023-03-14T10:10:17;6.00;;;2.72;;
76939;SDS011;65885;55.848;35.916;2023-03-14T10:12:46;5.22;;;3.05;;
76939;SDS011;65885;55.848;35.916;2023-03-14T10:15:15;4.18;;;2.63;;
76939;SDS011;65885;55.848;35.916;2023-03-14T10:17:58;5.32;;;2.83;;
76939;SDS011;65885;55.848;35.916;2023-03-14T10:20:29;3.70;;;2.85;;
76939;SDS011;65885;55.848;35.916;2023-03-14T10:22:59;6.82;;;2.50;;
76939;SDS011;65885;55.848;35.916;2023-03-14T10:25:30;4.60;;;2.65;;
76939;SDS011;65885;55.848;35.916;2023-03-14T10:27:59;4.00;;;2.70;;
76939;SDS011;65885;55.848;35.916;2023-03-14T10:30:38;4.32;;;3.15;;
76939;SDS011;65885;55.848;35.916;2023-03-14T10:33:10;5.93;;;3.10;;
76939;SDS011;65885;55.848;35.916;2023-03-14T10:35:42;7.97;;;2.60;;
76939;SDS011;65885;55.848;35.916;2023-03-14T10:38:12;3.97;;;2.80;;
76939;SDS011;65885;55.848;35.916;2023-03-14T10:40:40;5.60;;;2.58;;
76939;SDS011;65885;55.848;35.916;2023-03-14T10:43:17;4.20;;;2.90;;
76939;SDS011;65885;55.848;35.916;2023-03-14T10:45:51;4.68;;;2.83;;
76939;SDS011;65885;55.848;35.916;2023-03-14T10:48:24;3.25;;;2.38;;
76939;SDS011;65885;55.848;35.916;2023-03-14T10:51:02;2.67;;;1.92;;
76939;SDS011;65885;55.848;35.916;2023-03-14T10:53:39;5.25;;;2.80;;
76939;SDS011;65885;55.848;35.916;2023-03-14T10:58:39;5.18;;;2.17;;
76939;SDS011;65885;55.848;35.916;2023-03-14T11:01:22;6.05;;;2.63;;
76939;SDS011;65885;55.848;35.916;2023-03-14T11:03:57;4.78;;;2.38;;
76939;SDS011;65885;55.848;35.916;2023-03-14T11:06:34;4.22;;;3.03;;
76939;SDS011;65885;55.848;35.916;2023-03-14T11:09:10;4.97;;;2.70;;
76939;SDS011;65885;55.848;35.916;2023-03-14T11:11:46;4.00;;;2.42;;
76939;SDS011;65885;55.848;35.916;2023-03-14T11:14:16;4.38;;;2.88;;
76939;SDS011;65885;55.848;35.916;2023-03-14T11:16:56;5.07;;;2.53;;
76939;SDS011;65885;55.848;35.916;2023-03-14T11:19:31;3.20;;;2.53;;
76939;SDS011;65885;55.848;35.916;2023-03-14T11:22:22;2.58;;;2.03;;
76939;SDS011;65885;55.848;35.916;2023-03-14T11:25:07;3.55;;;2.72;;
76939;SDS011;65885;55.848;35.916;2023-03-14T11:27:56;7.90;;;2.67;;
76939;SDS011;65885;55.848;35.916;2023-03-14T11:30:35;3.92;;;2.40;;
76939;SDS011;65885;55.848;35.916;2023-03-14T11:33:13;4.45;;;2.22;;
76939;SDS011;65885;55.848;35.916;2023-03-14T11:35:44;3.10;;;1.80;;
76939;SDS011;65885;55.848;35.916;2023-03-14T11:38:22;3.83;;;2.63;;
76939;SDS011;65885;55.848;35.916;2023-03-14T11:40:56;4.18;;;2.40;;
76939;SDS011;65885;55.848;35.916;2023-03-14T11:43:26;3.20;;;2.08;;
76939;SDS011;65885;55.848;35.916;2023-03-14T11:45:57;4.05;;;2.25;;
76939;SDS011;65885;55.848;35.916;2023-03-14T11:48:34;3.88;;;2.15;;
76939;SDS011;65885;55.848;35.916;2023-03-14T11:51:06;4.32;;;2.63;;
76939;SDS011;65885;55.848;35.916;2023-03-14T11:53:49;4.15;;;2.60;;
76939;SDS011;65885;55.848;35.916;2023-03-14T11:56:25;4.15;;;2.70;;
76939;SDS011;65885;55.848;35.916;2023-03-14T11:58:59;3.47;;;2.05;;
76939;SDS011;65885;55.848;35.916;2023-03-14T12:01:36;4.03;;;2.78;;
76939;SDS011;65885;55.848;35.916;2023-03-14T12:04:20;4.65;;;2.17;;
76939;SDS011;65885;55.848;35.916;2023-03-14T12:07:07;4.15;;;2.63;;
76939;SDS011;65885;55.848;35.916;2023-03-14T12:09:42;3.47;;;2.22;;
76939;SDS011;65885;55.848;35.916;2023-03-14T12:12:11;4.28;;;2.20;;
76939;SDS011;65885;55.848;35.916;2023-03-14T12:14:44;3.97;;;2.40;;
76939;SDS011;65885;55.848;35.916;2023-03-14T12:17:20;3.70;;;2.08;;
76939;SDS011;65885;55.848;35.916;2023-03-14T12:19:59;3.50;;;1.88;;
76939;SDS011;65885;55.848;35.916;2023-03-14T12:22:32;5.78;;;2.90;;
76939;SDS011;65885;55.848;35.916;2023-03-14T12:25:05;4.55;;;2.22;;
76939;SDS011;65885;55.848;35.916;2023-03-14T12:27:41;5.15;;;2.47;;
76939;SDS011;65885;55.848;35.916;2023-03-14T12:30:15;4.80;;;2.33;;
76939;SDS011;65885;55.848;35.916;2023-03-14T12:33:18;3.72;;;2.00;;
76939;SDS011;65885;55.848;35.916;2023-03-14T12:35:57;4.35;;;2.50;;
76939;SDS011;65885;55.848;35.916;2023-03-14T12:38:29;2.72;;;2.25;;
76939;SDS011;65885;55.848;35.916;2023-03-14T12:41:14;8.48;;;2.72;;
76939;SDS011;65885;55.848;35.916;2023-03-14T12:43:45;3.50;;;2.70;;
76939;SDS011;65885;55.848;35.916;2023-03-14T12:46:24;3.53;;;2.40;;
76939;SDS011;65885;55.848;35.916;2023-03-14T12:48:54;4.10;;;2.30;;
76939;SDS011;65885;55.848;35.916;2023-03-14T12:51:33;4.22;;;2.40;;
76939;SDS011;65885;55.848;35.916;2023-03-14T12:54:19;4.45;;;2.85;;
76939;SDS011;65885;55.848;35.916;2023-03-14T12:56:59;3.28;;;2.17;;
76939;SDS011;65885;55.848;35.916;2023-03-14T12:59:36;5.38;;;2.75;;
76939;SDS011;65885;55.848;35.916;2023-03-14T13:02:20;3.30;;;2.50;;
76939;SDS011;65885;55.848;35.916;2023-03-14T13:04:51;5.03;;;2.75;;
76939;SDS011;65885;55.848;35.916;2023-03-14T13:07:30;5.22;;;2.60;;
76939;SDS011;65885;55.848;35.916;2023-03-14T13:10:00;4.47;;;2.50;;
76939;SDS011;65885;55.848;35.916;2023-03-14T13:12:37;4.18;;;2.75;;
76939;SDS011;65885;55.848;35.916;2023-03-14T13:15:13;4.93;;;2.63;;
76939;SDS011;65885;55.848;35.916;2023-03-14T13:17:45;4.78;;;2.90;;
76939;SDS011;65885;55.848;35.916;2023-03-14T13:20:16;5.28;;;2.65;;
76939;SDS011;65885;55.848;35.916;2023-03-14T13:22:49;5.75;;;3.00;;
76939;SDS011;65885;55.848;35.916;2023-03-14T13:25:17;4.25;;;2.90;;
76939;SDS011;65885;55.848;35.916;2023-03-14T13:27:48;4.78;;;2.95;;
76939;SDS011;65885;55.848;35.916;2023-03-14T13:30:18;4.57;;;2.50;;
76939;SDS011;65885;55.848;35.916;2023-03-14T13:32:48;5.82;;;3.03;;
76939;SDS011;65885;55.848;35.916;2023-03-14T13:35:17;7.40;;;3.17;;
76939;SDS011;65885;55.848;35.916;2023-03-14T13:37:47;5.68;;;3.17;;
76939;SDS011;65885;55.848;35.916;2023-03-14T13:40:19;5.40;;;2.60;;
76939;SDS011;65885;55.848;35.916;2023-03-14T13:43:00;4.68;;;2.80;;
76939;SDS011;65885;55.848;35.916;2023-03-14T13:45:29;3.47;;;2.90;;
76939;SDS011;65885;55.848;35.916;2023-03-14T13:47:57;3.80;;;2.53;;
76939;SDS011;65885;55.848;35.916;2023-03-14T13:50:24;4.90;;;3.08;;
76939;SDS011;65885;55.848;35.916;2023-03-14T13:52:55;4.15;;;2.80;;
76939;SDS011;65885;55.848;35.916;2023-03-14T13:55:23;5.43;;;2.95;;
76939;SDS011;65885;55.848;35.916;2023-03-14T13:57:51;4.20;;;2.85;;
76939;SDS011;65885;55.848;35.916;2023-03-14T14:00:22;5.97;;;3.33;;
76939;SDS011;65885;55.848;35.916;2023-03-14T14:02:52;3.97;;;2.75;;
76939;SDS011;65885;55.848;35.916;2023-03-14T14:05:21;4.03;;;2.72;;
76939;SDS011;65885;55.848;35.916;2023-03-14T14:07:49;4.82;;;2.83;;
76939;SDS011;65885;55.848;35.916;2023-03-14T14:10:17;4.93;;;2.75;;
76939;SDS011;65885;55.848;35.916;2023-03-14T14:12:46;6.18;;;3.20;;
76939;SDS011;65885;55.848;35.916;2023-03-14T14:15:18;5.95;;;3.00;;
76939;SDS011;65885;55.848;35.916;2023-03-14T14:17:50;5.45;;;3.20;;
76939;SDS011;65885;55.848;35.916;2023-03-14T14:20:22;5.07;;;3.20;;
76939;SDS011;65885;55.848;35.916;2023-03-14T14:22:57;3.13;;;2.45;;
76939;SDS011;65885;55.848;35.916;2023-03-14T14:25:25;4.50;;;2.70;;
76939;SDS011;65885;55.848;35.916;2023-03-14T14:27:54;3.65;;;2.50;;
76939;SDS011;65885;55.848;35.916;2023-03-14T14:30:27;4.80;;;2.85;;
76939;SDS011;65885;55.848;35.916;2023-03-14T14:33:12;4.03;;;3.03;;
76939;SDS011;65885;55.848;35.916;2023-03-14T14:35:50;4.75;;;2.75;;
76939;SDS011;65885;55.848;35.916;2023-03-14T14:38:21;4.50;;;2.90;;
76939;SDS011;65885;55.848;35.916;2023-03-14T14:40:50;3.85;;;2.40;;
76939;SDS011;65885;55.848;35.916;2023-03-14T14:43:21;4.22;;;2.50;;
76939;SDS011;65885;55.848;35.916;2023-03-14T14:45:51;3.40;;;2.60;;
76939;SDS011;65885;55.848;35.916;2023-03-14T14:48:22;3.25;;;2.60;;
76939;SDS011;65885;55.848;35.916;2023-03-14T14:50:55;4.15;;;2.45;;
76939;SDS011;65885;55.848;35.916;2023-03-14T14:53:27;5.88;;;2.60;;
76939;SDS011;65885;55.848;35.916;2023-03-14T14:55:57;3.58;;;2.85;;